Time;durP1;ratioP1;P1;durP2;ratioP2;P2;SDS_P1;SDS_P2;PMS_P1;PMS_P2;Temp;Humidity;BMP_temperature;BMP_pressure;BME280_temperature;BME280_humidity;BME280_pressure;Samples;Min_cycle;Max_cycle;Signal;HPM_P1;HPM_P2
2023/06/02 00:01:31;;;;;;;;;;;20.20;93.90;;;;;;4790076;29;20693;-75
2023/06/02 00:04:01;;;;;;;;;;;20.20;93.90;;;;;;4784425;29;19936;-76
2023/06/02 00:06:33;;;;;;;;;;;20.20;94.10;;;;;;4800758;29;20121;-76
2023/06/02 00:09:04;;;;;;;;;;;20.10;94.20;;;;;;4789530;29;19992;-75
2023/06/02 00:11:36;;;;;;;;;;;20.10;94.40;;;;;;4805661;29;19936;-76
2023/06/02 00:14:07;;;;;;;;;;;20.20;94.30;;;;;;4796101;29;20093;-75
2023/06/02 00:16:42;;;;;;;;;;;20.10;94.20;;;;;;4789056;29;19943;-76
2023/06/02 00:19:11;;;;;;;;;;;20.10;94.10;;;;;;4796795;29;19936;-75
2023/06/02 00:21:45;;;;;;;;;;;20.10;93.90;;;;;;4778072;29;19936;-75
2023/06/02 00:24:12;;;;;;;;;;;20.10;94.20;;;;;;4777924;29;20078;-75
2023/06/02 00:26:39;;;;;;;;;;;20.10;94.20;;;;;;4794884;29;20592;-74
2023/06/02 00:29:06;;;;;;;;;;;20.10;94.00;;;;;;4798480;29;20431;-75
2023/06/02 00:31:33;;;;;;;;;;;20.00;94.10;;;;;;4792377;29;20634;-75
2023/06/02 00:34:01;;;;;;;;;;;19.90;94.20;;;;;;4794269;29;20061;-75
2023/06/02 00:36:28;;;;;;;;;;;19.90;94.60;;;;;;4791985;29;19937;-75
2023/06/02 00:38:55;;;;;;;;;;;19.80;94.90;;;;;;4793495;29;21549;-75
2023/06/02 00:41:22;;;;;;;;;;;19.80;95.10;;;;;;4795623;29;19932;-75
2023/06/02 00:43:49;;;;;;;;;;;19.80;95.20;;;;;;4747915;29;20117;-75
2023/06/02 00:46:15;;;;;;;;;;;19.70;95.60;;;;;;4780561;29;19984;-74
2023/06/02 00:48:43;;;;;;;;;;;19.70;96.20;;;;;;4776618;29;19936;-75
2023/06/02 00:51:10;;;;;;;;;;;19.70;97.00;;;;;;4779852;29;19992;-75
2023/06/02 00:53:38;;;;;;;;;;;19.70;97.50;;;;;;4794627;29;19971;-75
2023/06/02 00:56:05;;;;;;;;;;;19.60;97.40;;;;;;4793450;29;19943;-75
2023/06/02 00:58:37;;;;;;;;;;;19.60;97.50;;;;;;4776399;29;22183;-75
2023/06/02 01:01:08;;;;;;;;;;;19.50;97.70;;;;;;4792537;29;20497;-75
2023/06/02 01:03:40;;;;;;;;;;;19.50;97.50;;;;;;4780376;29;20015;-74
2023/06/02 01:06:07;;;;;;;;;;;19.50;97.70;;;;;;4794875;29;20035;-75
2023/06/02 01:08:37;;;;;;;;;;;19.50;98.10;;;;;;4804075;29;20381;-75
2023/06/02 01:11:05;;;;;;;;;;;19.50;97.10;;;;;;4787881;29;19976;-75
2023/06/02 01:13:32;;;;;;;;;;;19.50;96.70;;;;;;4793493;29;20003;-75
2023/06/02 01:15:59;;;;;;;;;;;19.40;96.60;;;;;;4800967;29;19936;-75
2023/06/02 01:18:29;;;;;;;;;;;19.40;97.20;;;;;;4794955;29;20027;-75
2023/06/02 01:21:01;;;;;;;;;;;19.40;97.40;;;;;;4777811;29;19944;-75
2023/06/02 01:23:33;;;;;;;;;;;19.40;97.50;;;;;;4790898;29;20068;-75
2023/06/02 01:26:05;;;;;;;;;;;19.30;97.60;;;;;;4792758;29;20488;-75
2023/06/02 01:28:32;;;;;;;;;;;19.30;98.00;;;;;;4795629;29;19967;-75
2023/06/02 01:31:02;;;;;;;;;;;19.30;97.70;;;;;;4759407;29;22051;-75
2023/06/02 01:33:38;;;;;;;;;;;19.20;98.30;;;;;;4792915;29;20091;-75
2023/06/02 01:36:06;;;;;;;;;;;19.20;97.80;;;;;;4794590;29;19974;-75
2023/06/02 01:38:35;;;;;;;;;;;19.20;98.00;;;;;;4775148;29;19944;-75
2023/06/02 01:41:03;;;;;;;;;;;19.10;97.90;;;;;;4789879;29;19936;-75
2023/06/02 01:43:32;;;;;;;;;;;19.10;97.80;;;;;;4801596;29;22329;-75
2023/06/02 01:45:59;;;;;;;;;;;19.10;98.10;;;;;;4774467;29;19936;-75
2023/06/02 01:48:28;;;;;;;;;;;19.10;98.20;;;;;;4793378;29;19936;-75
2023/06/02 01:50:55;;;;;;;;;;;19.10;98.10;;;;;;4801945;29;19929;-76
2023/06/02 01:53:26;;;;;;;;;;;19.10;98.10;;;;;;4792001;29;20072;-75
2023/06/02 01:55:54;;;;;;;;;;;19.00;98.30;;;;;;4789059;29;19940;-75
2023/06/02 01:58:22;;;;;;;;;;;19.00;98.60;;;;;;4791796;29;19971;-75
2023/06/02 02:00:49;;;;;;;;;;;19.00;98.80;;;;;;4774816;29;20020;-75
2023/06/02 02:03:17;;;;;;;;;;;18.90;98.50;;;;;;4787218;29;20413;-75
2023/06/02 02:05:45;;;;;;;;;;;18.90;98.80;;;;;;4789132;29;20377;-75
2023/06/02 02:08:12;;;;;;;;;;;18.90;98.90;;;;;;4777543;29;20706;-75
2023/06/02 02:10:39;;;;;;;;;;;18.80;98.80;;;;;;4794196;29;19973;-75
2023/06/02 02:13:06;;;;;;;;;;;18.80;98.70;;;;;;4791442;29;19936;-75
2023/06/02 02:15:33;;;;;;;;;;;18.80;99.00;;;;;;4788896;29;20320;-75
2023/06/02 02:18:00;;;;;;;;;;;18.70;98.80;;;;;;4790892;29;19937;-75
2023/06/02 02:20:28;;;;;;;;;;;18.70;99.20;;;;;;4775103;29;20518;-75
2023/06/02 02:22:55;;;;;;;;;;;18.70;99.60;;;;;;4794655;29;20648;-74
2023/06/02 02:25:22;;;;;;;;;;;18.70;99.40;;;;;;4794993;29;19955;-74
2023/06/02 02:27:49;;;;;;;;;;;18.70;99.30;;;;;;4773786;29;19937;-75
2023/06/02 02:30:16;;;;;;;;;;;18.70;99.20;;;;;;4761760;29;19937;-75
2023/06/02 02:32:44;;;;;;;;;;;18.60;99.10;;;;;;4793115;29;22355;-75
2023/06/02 02:35:11;;;;;;;;;;;18.60;99.50;;;;;;4775505;29;20401;-75
2023/06/02 02:37:40;;;;;;;;;;;18.60;99.90;;;;;;4788261;29;19967;-75
2023/06/02 02:40:23;;;;;;;;;;;18.60;99.60;;;;;;4789216;29;19936;-75
2023/06/02 02:42:50;;;;;;;;;;;18.50;99.90;;;;;;4788231;29;19968;-75
2023/06/02 02:45:19;;;;;;;;;;;18.50;99.80;;;;;;4782287;29;19943;-75
2023/06/02 02:47:47;;;;;;;;;;;18.40;99.60;;;;;;4772716;29;19936;-75
2023/06/02 02:50:14;;;;;;;;;;;18.40;99.70;;;;;;4770835;29;22008;-75
2023/06/02 02:52:43;;;;;;;;;;;18.40;99.60;;;;;;4792342;29;19936;-75
2023/06/02 02:55:11;;;;;;;;;;;18.40;99.60;;;;;;4781374;29;20404;-75
2023/06/02 02:57:39;;;;;;;;;;;18.40;99.80;;;;;;4794955;29;20625;-75
2023/06/02 03:00:09;;;;;;;;;;;18.30;99.90;;;;;;4791946;29;19975;-74
2023/06/02 03:02:37;;;;;;;;;;;18.30;99.90;;;;;;4770183;29;19940;-75
2023/06/02 03:05:06;;;;;;;;;;;18.30;99.90;;;;;;4788828;29;19937;-75
2023/06/02 03:07:34;;;;;;;;;;;18.30;99.80;;;;;;4790574;29;19936;-74
2023/06/02 03:10:02;;;;;;;;;;;18.30;99.90;;;;;;4780390;29;19936;-75
2023/06/02 03:12:31;;;;;;;;;;;18.30;99.90;;;;;;4795151;29;19943;-75
2023/06/02 03:14:59;;;;;;;;;;;18.20;99.90;;;;;;4792187;29;20000;-75
2023/06/02 03:17:27;;;;;;;;;;;18.20;99.90;;;;;;4779729;29;20320;-75
2023/06/02 03:19:55;;;;;;;;;;;18.20;99.90;;;;;;4794729;29;19940;-74
2023/06/02 03:22:22;;;;;;;;;;;18.20;99.90;;;;;;4800398;29;19936;-75
2023/06/02 03:24:50;;;;;;;;;;;18.20;99.90;;;;;;4811887;29;19940;-75
2023/06/02 03:27:19;;;;;;;;;;;18.20;99.90;;;;;;4798042;29;19936;-75
2023/06/02 03:29:52;;;;;;;;;;;18.20;99.90;;;;;;4800612;29;19928;-75
2023/06/02 03:32:22;;;;;;;;;;;18.20;99.90;;;;;;4780939;29;19971;-75
2023/06/02 03:34:49;;;;;;;;;;;18.30;99.90;;;;;;4776884;29;20172;-75
2023/06/02 03:37:17;;;;;;;;;;;18.30;99.90;;;;;;4793293;29;22297;-75
2023/06/02 03:39:46;;;;;;;;;;;18.30;99.90;;;;;;4798137;29;20070;-75
2023/06/02 03:42:13;;;;;;;;;;;18.30;99.90;;;;;;4797608;29;19936;-75
2023/06/02 03:44:41;;;;;;;;;;;18.40;99.90;;;;;;4794303;29;22250;-74
2023/06/02 03:47:09;;;;;;;;;;;18.40;99.90;;;;;;4796699;29;20328;-75
2023/06/02 03:49:36;;;;;;;;;;;18.40;99.90;;;;;;4784033;29;20955;-75
2023/06/02 03:52:05;;;;;;;;;;;18.40;99.90;;;;;;4786728;29;19994;-75
2023/06/02 03:54:35;;;;;;;;;;;18.50;99.90;;;;;;4800137;29;20449;-75
2023/06/02 03:57:03;;;;;;;;;;;18.50;99.90;;;;;;4762844;29;22560;-75
2023/06/02 03:59:30;;;;;;;;;;;18.50;99.90;;;;;;4803280;29;19964;-75
2023/06/02 04:01:58;;;;;;;;;;;18.60;99.90;;;;;;4789669;29;19937;-75
2023/06/02 04:04:26;;;;;;;;;;;18.70;99.90;;;;;;4790540;29;20296;-75
2023/06/02 04:06:54;;;;;;;;;;;18.70;99.90;;;;;;4779398;29;19936;-75
2023/06/02 04:09:21;;;;;;;;;;;18.70;99.30;;;;;;4794000;29;19936;-75
2023/06/02 04:11:48;;;;;;;;;;;18.70;99.10;;;;;;4773522;29;20631;-75
2023/06/02 04:14:16;;;;;;;;;;;18.60;99.40;;;;;;4779622;29;19936;-75
2023/06/02 04:16:46;;;;;;;;;;;18.70;99.30;;;;;;4794141;29;19976;-75
2023/06/02 04:19:14;;;;;;;;;;;18.70;98.80;;;;;;4787946;29;20304;-75
2023/06/02 04:21:41;;;;;;;;;;;18.80;98.80;;;;;;4775409;29;20413;-75
2023/06/02 04:24:09;;;;;;;;;;;19.00;98.40;;;;;;4778175;29;20061;-75
2023/06/02 04:26:36;;;;;;;;;;;19.10;98.80;;;;;;4780088;29;21982;-75
2023/06/02 04:29:03;;;;;;;;;;;19.20;98.00;;;;;;4809250;29;19936;-76
2023/06/02 04:31:42;;;;;;;;;;;19.30;97.40;;;;;;4790681;29;20017;-75
2023/06/02 04:34:12;;;;;;;;;;;19.30;96.90;;;;;;4804766;29;20723;-75
2023/06/02 04:36:40;;;;;;;;;;;19.40;96.70;;;;;;4791695;29;19943;-75
2023/06/02 04:39:08;;;;;;;;;;;19.50;97.10;;;;;;4798454;29;19936;-75
2023/06/02 04:41:36;;;;;;;;;;;19.60;97.30;;;;;;4802775;29;19936;-75
2023/06/02 04:44:04;;;;;;;;;;;19.70;97.30;;;;;;4790842;29;20405;-75
2023/06/02 04:46:31;;;;;;;;;;;19.70;96.40;;;;;;4790244;29;19936;-75
2023/06/02 04:49:07;;;;;;;;;;;19.80;96.70;;;;;;4789719;29;19936;-75
2023/06/02 04:51:35;;;;;;;;;;;19.90;96.40;;;;;;4792496;29;19936;-75
2023/06/02 04:54:02;;;;;;;;;;;20.00;94.80;;;;;;4777092;29;19975;-75
2023/06/02 04:56:30;;;;;;;;;;;20.10;96.70;;;;;;4790693;29;20514;-75
2023/06/02 04:58:58;;;;;;;;;;;20.20;96.80;;;;;;4796155;29;20374;-75
2023/06/02 05:01:28;;;;;;;;;;;20.30;97.20;;;;;;4797046;29;19940;-75
2023/06/02 05:03:55;;;;;;;;;;;20.40;96.10;;;;;;4792585;29;20047;-74
2023/06/02 05:06:23;;;;;;;;;;;20.50;96.30;;;;;;4779274;29;19980;-75
2023/06/02 05:08:50;;;;;;;;;;;20.50;96.60;;;;;;4794054;29;19992;-75
2023/06/02 05:11:18;;;;;;;;;;;20.70;96.40;;;;;;4791040;29;20640;-75
2023/06/02 05:13:45;;;;;;;;;;;20.80;96.20;;;;;;4788070;29;20060;-75
2023/06/02 05:16:12;;;;;;;;;;;20.90;95.20;;;;;;4789609;29;19976;-75
2023/06/02 05:18:40;;;;;;;;;;;21.00;94.90;;;;;;4796276;29;21311;-75
2023/06/02 05:21:08;;;;;;;;;;;21.10;94.10;;;;;;4782529;29;19956;-75
2023/06/02 05:23:36;;;;;;;;;;;21.20;93.10;;;;;;4789238;29;19994;-75
2023/06/02 05:26:04;;;;;;;;;;;21.40;93.60;;;;;;4793128;29;20448;-75
2023/06/02 05:28:31;;;;;;;;;;;21.50;93.50;;;;;;4787791;29;19943;-75
2023/06/02 05:30:59;;;;;;;;;;;21.50;91.50;;;;;;4773234;29;19933;-75
2023/06/02 05:33:29;;;;;;;;;;;21.70;92.10;;;;;;4792883;29;22190;-75
2023/06/02 05:35:56;;;;;;;;;;;21.80;91.80;;;;;;4794459;29;20388;-75
2023/06/02 05:38:23;;;;;;;;;;;21.90;90.20;;;;;;4776826;29;19975;-75
2023/06/02 05:40:51;;;;;;;;;;;22.00;89.80;;;;;;4801537;29;19971;-76
2023/06/02 05:43:18;;;;;;;;;;;22.10;90.20;;;;;;4790332;29;19943;-76
2023/06/02 05:45:46;;;;;;;;;;;22.20;90.30;;;;;;4794404;29;19943;-76
2023/06/02 05:48:13;;;;;;;;;;;22.40;90.30;;;;;;4792767;29;19937;-75
2023/06/02 05:50:41;;;;;;;;;;;22.60;90.80;;;;;;4807886;29;19937;-76
2023/06/02 05:53:08;;;;;;;;;;;22.60;88.10;;;;;;4777680;29;20113;-76
2023/06/02 05:55:36;;;;;;;;;;;22.70;86.90;;;;;;4770949;29;19936;-76
2023/06/02 05:58:05;;;;;;;;;;;22.80;85.30;;;;;;4789295;29;20035;-76
2023/06/02 06:00:32;;;;;;;;;;;22.90;87.10;;;;;;4805399;29;19936;-76
2023/06/02 06:03:00;;;;;;;;;;;22.90;84.50;;;;;;4790207;29;20431;-75
2023/06/02 06:05:31;;;;;;;;;;;23.10;87.20;;;;;;4788403;29;20669;-76
2023/06/02 06:08:00;;;;;;;;;;;23.10;86.50;;;;;;4792379;29;20823;-76
2023/06/02 06:10:27;;;;;;;;;;;23.30;87.40;;;;;;4803086;29;20054;-76
2023/06/02 06:12:56;;;;;;;;;;;23.30;86.60;;;;;;4778553;29;19936;-76
2023/06/02 06:15:23;;;;;;;;;;;23.50;87.00;;;;;;4794865;29;19937;-75
2023/06/02 06:17:51;;;;;;;;;;;23.60;87.60;;;;;;4780513;29;19944;-75
2023/06/02 06:20:19;;;;;;;;;;;23.80;86.50;;;;;;4787102;29;20436;-75
2023/06/02 06:22:46;;;;;;;;;;;23.80;86.00;;;;;;4777830;29;19943;-76
2023/06/02 06:25:15;;;;;;;;;;;23.90;87.50;;;;;;4790346;29;19936;-75
2023/06/02 06:27:43;;;;;;;;;;;24.10;85.90;;;;;;4790253;29;20060;-75
2023/06/02 06:30:11;;;;;;;;;;;24.10;84.90;;;;;;4790446;29;19936;-75
2023/06/02 06:32:38;;;;;;;;;;;24.30;84.50;;;;;;4771801;29;20711;-76
2023/06/02 06:35:05;;;;;;;;;;;24.40;85.20;;;;;;4772836;29;19936;-76
2023/06/02 06:37:33;;;;;;;;;;;24.40;85.50;;;;;;4789319;29;20498;-75
2023/06/02 06:40:00;;;;;;;;;;;24.50;83.70;;;;;;4789419;29;20396;-77
2023/06/02 06:42:27;;;;;;;;;;;24.60;84.20;;;;;;4779256;29;20701;-77
2023/06/02 06:45:14;;;;;;;;;;;24.60;85.60;;;;;;4772951;29;19936;-76
2023/06/02 06:47:42;;;;;;;;;;;24.80;84.00;;;;;;4794413;29;20316;-75
2023/06/02 06:50:14;;;;;;;;;;;24.90;83.40;;;;;;4803173;29;19967;-76
2023/06/02 06:52:42;;;;;;;;;;;25.00;83.20;;;;;;4792670;29;20313;-75
2023/06/02 06:55:09;;;;;;;;;;;25.20;82.80;;;;;;4793384;29;20036;-75
2023/06/02 06:57:36;;;;;;;;;;;25.30;82.10;;;;;;4794369;29;20557;-76
2023/06/02 07:00:05;;;;;;;;;;;25.50;82.60;;;;;;4797857;29;20315;-77
2023/06/02 07:02:32;;;;;;;;;;;25.10;79.40;;;;;;4790248;29;20105;-77
2023/06/02 07:05:00;;;;;;;;;;;25.00;81.10;;;;;;4797324;29;19929;-76
2023/06/02 07:07:27;;;;;;;;;;;25.40;80.60;;;;;;4829281;29;19928;-77
2023/06/02 07:09:54;;;;;;;;;;;25.20;80.40;;;;;;4777526;29;19944;-79
2023/06/02 07:12:21;;;;;;;;;;;25.00;79.20;;;;;;4785110;29;20082;-78
2023/06/02 07:14:50;;;;;;;;;;;25.00;80.10;;;;;;4797040;29;19939;-78
2023/06/02 07:17:17;;;;;;;;;;;25.10;80.80;;;;;;4772034;29;20373;-77
2023/06/02 07:19:44;;;;;;;;;;;25.10;80.80;;;;;;4779690;29;20551;-78
2023/06/02 07:22:12;;;;;;;;;;;24.90;81.60;;;;;;4764148;29;19944;-77
2023/06/02 07:24:41;;;;;;;;;;;25.40;81.40;;;;;;4790320;29;20393;-78
2023/06/02 07:27:08;;;;;;;;;;;25.40;82.00;;;;;;4771632;29;20020;-79
2023/06/02 07:29:36;;;;;;;;;;;25.40;80.10;;;;;;4793766;29;19972;-80
2023/06/02 07:32:03;;;;;;;;;;;25.70;81.30;;;;;;4793817;29;19936;-78
2023/06/02 07:34:30;;;;;;;;;;;25.70;77.80;;;;;;4778017;29;19943;-77
2023/06/02 07:37:00;;;;;;;;;;;25.30;78.00;;;;;;4788382;29;19995;-78
2023/06/02 07:39:27;;;;;;;;;;;25.10;80.00;;;;;;4798520;29;19937;-77
2023/06/02 07:41:54;;;;;;;;;;;24.90;79.30;;;;;;4789980;29;20023;-76
2023/06/02 07:44:21;;;;;;;;;;;25.00;79.70;;;;;;4807182;29;20062;-79
2023/06/02 07:46:48;;;;;;;;;;;25.30;78.70;;;;;;4778670;29;20127;-79
2023/06/02 07:49:15;;;;;;;;;;;25.50;77.90;;;;;;4773170;29;19985;-77
2023/06/02 07:51:43;;;;;;;;;;;25.70;77.10;;;;;;4777265;29;19936;-80
2023/06/02 07:54:10;;;;;;;;;;;26.00;78.20;;;;;;4791898;29;20735;-80
2023/06/02 07:56:37;;;;;;;;;;;26.10;76.40;;;;;;4761100;29;20823;-77
2023/06/02 07:59:04;;;;;;;;;;;26.20;77.30;;;;;;4775140;29;20332;-78
2023/06/02 08:01:31;;;;;;;;;;;26.10;76.50;;;;;;4792633;29;19936;-78
2023/06/02 08:03:59;;;;;;;;;;;26.10;75.90;;;;;;4794361;29;20027;-79
2023/06/02 08:06:26;;;;;;;;;;;26.20;75.50;;;;;;4800275;29;20384;-80
2023/06/02 08:08:53;;;;;;;;;;;26.10;74.70;;;;;;4766415;29;20031;-78
2023/06/02 08:11:22;;;;;;;;;;;25.90;75.10;;;;;;4780893;29;19936;-79
2023/06/02 08:13:49;;;;;;;;;;;26.30;77.90;;;;;;4780966;29;19936;-77
2023/06/02 08:16:17;;;;;;;;;;;26.50;76.80;;;;;;4781624;29;19937;-80
2023/06/02 08:18:54;;;;;;;;;;;26.50;75.90;;;;;;4796557;29;19928;-77
2023/06/02 08:21:22;;;;;;;;;;;26.70;73.40;;;;;;4782773;29;20027;-79
2023/06/02 08:23:51;;;;;;;;;;;26.80;71.80;;;;;;4791563;29;19937;-84
2023/06/02 08:26:18;;;;;;;;;;;26.90;71.40;;;;;;4798537;29;20552;-79
2023/06/02 08:28:49;;;;;;;;;;;26.90;72.00;;;;;;4803524;29;20621;-80
2023/06/02 08:31:18;;;;;;;;;;;27.10;72.40;;;;;;4789329;29;20030;-80
2023/06/02 08:33:47;;;;;;;;;;;27.10;72.20;;;;;;4785429;29;19943;-82
2023/06/02 08:36:17;;;;;;;;;;;27.30;70.80;;;;;;4795989;29;21447;-84
2023/06/02 08:38:45;;;;;;;;;;;27.10;68.90;;;;;;4810089;29;20327;-80
2023/06/02 08:41:12;;;;;;;;;;;27.10;70.70;;;;;;4797339;29;19952;-82
2023/06/02 08:43:40;;;;;;;;;;;27.20;69.30;;;;;;4801967;29;19991;-82
2023/06/02 08:46:12;;;;;;;;;;;27.20;68.00;;;;;;4789345;29;19943;-82
2023/06/02 08:48:41;;;;;;;;;;;27.30;65.50;;;;;;4810223;29;20530;-81
2023/06/02 08:51:10;;;;;;;;;;;27.40;66.30;;;;;;4792529;29;20350;-81
2023/06/02 08:53:38;;;;;;;;;;;27.60;66.20;;;;;;4799219;29;19960;-82
2023/06/02 08:56:05;;;;;;;;;;;27.70;66.40;;;;;;4789405;29;20425;-82
2023/06/02 08:58:33;;;;;;;;;;;27.80;66.30;;;;;;4802424;29;20501;-81
2023/06/02 09:01:02;;;;;;;;;;;27.70;66.00;;;;;;4782775;29;19944;-81
2023/06/02 09:03:29;;;;;;;;;;;27.20;64.40;;;;;;4795940;29;19959;-80
2023/06/02 09:06:20;;;;;;;;;;;27.10;63.20;;;;;;4801805;29;22304;-79
2023/06/02 09:08:57;;;;;;;;;;;27.60;66.50;;;;;;4797871;29;19947;-80
2023/06/02 09:11:26;;;;;;;;;;;27.90;66.00;;;;;;4797057;29;19937;-82
2023/06/02 09:13:54;;;;;;;;;;;27.40;64.50;;;;;;4796804;29;20428;-81
2023/06/02 09:16:22;;;;;;;;;;;27.10;63.40;;;;;;4803548;29;19936;-80
2023/06/02 09:18:57;;;;;;;;;;;26.80;65.00;;;;;;4796406;29;19943;-81
2023/06/02 09:21:32;;;;;;;;;;;26.50;64.10;;;;;;4807713;29;19945;-81
2023/06/02 09:24:00;;;;;;;;;;;26.20;62.50;;;;;;4798220;29;19943;-82
2023/06/02 09:26:46;;;;;;;;;;;25.80;65.60;;;;;;4803951;29;19936;-80
2023/06/02 09:29:14;;;;;;;;;;;25.70;67.50;;;;;;4782675;29;22826;-81
2023/06/02 09:31:52;;;;;;;;;;;25.50;69.30;;;;;;4803505;29;19937;-80
2023/06/02 09:34:23;;;;;;;;;;;25.40;70.10;;;;;;4797530;29;19936;-81
2023/06/02 09:36:52;;;;;;;;;;;25.30;71.20;;;;;;4812411;29;19976;-80
2023/06/02 09:39:33;;;;;;;;;;;25.20;70.90;;;;;;4809393;29;20015;-81
2023/06/02 09:42:00;;;;;;;;;;;25.20;71.20;;;;;;4810217;29;21635;-80
2023/06/02 09:44:27;;;;;;;;;;;25.20;72.40;;;;;;4799320;29;19932;-80
2023/06/02 09:46:55;;;;;;;;;;;25.20;72.00;;;;;;4800322;29;19928;-80
2023/06/02 09:49:22;;;;;;;;;;;25.40;71.80;;;;;;4800050;29;20372;-81
2023/06/02 09:51:50;;;;;;;;;;;25.80;72.50;;;;;;4797587;29;20616;-81
2023/06/02 09:54:17;;;;;;;;;;;26.10;70.50;;;;;;4799578;29;19964;-79
2023/06/02 09:56:45;;;;;;;;;;;26.50;70.50;;;;;;4794115;29;20747;-80
2023/06/02 09:59:12;;;;;;;;;;;26.60;72.40;;;;;;4805919;29;19943;-84
2023/06/02 10:01:39;;;;;;;;;;;26.70;70.90;;;;;;4808161;29;20023;-80
2023/06/02 10:04:07;;;;;;;;;;;26.80;68.90;;;;;;4785667;29;20409;-79
2023/06/02 10:06:40;;;;;;;;;;;27.00;68.70;;;;;;4790045;29;19936;-79
2023/06/02 10:09:26;;;;;;;;;;;26.70;67.20;;;;;;4808240;29;19943;-81
2023/06/02 10:12:12;;;;;;;;;;;26.30;68.20;;;;;;4806790;29;19944;-81
2023/06/02 10:14:49;;;;;;;;;;;26.00;71.80;;;;;;4798144;29;19944;-78
2023/06/02 10:17:25;;;;;;;;;;;25.80;72.90;;;;;;4804904;29;19940;-85
2023/06/02 10:20:11;;;;;;;;;;;25.70;73.00;;;;;;4782670;29;19940;-79
2023/06/02 10:22:39;;;;;;;;;;;25.60;73.60;;;;;;4782680;29;20681;-79
2023/06/02 10:25:15;;;;;;;;;;;25.50;74.30;;;;;;4781462;29;22121;-80
2023/06/02 10:27:44;;;;;;;;;;;25.60;73.20;;;;;;4793756;29;19943;-80
2023/06/02 10:30:11;;;;;;;;;;;25.60;72.80;;;;;;4795814;29;20615;-79
2023/06/02 10:32:46;;;;;;;;;;;25.40;72.90;;;;;;4785151;29;19936;-79
2023/06/02 10:35:14;;;;;;;;;;;25.30;71.30;;;;;;4779272;29;19937;-80
2023/06/02 10:37:41;;;;;;;;;;;25.10;69.60;;;;;;4781550;29;19936;-79
2023/06/02 10:40:14;;;;;;;;;;;24.60;72.80;;;;;;4771754;29;20424;-81
2023/06/02 10:43:02;;;;;;;;;;;24.40;73.90;;;;;;4796217;29;20023;-80
2023/06/02 10:45:30;;;;;;;;;;;24.20;74.20;;;;;;4798315;29;20026;-78
2023/06/02 10:47:57;;;;;;;;;;;23.80;72.10;;;;;;4784658;29;19999;-78
2023/06/02 10:50:46;;;;;;;;;;;22.50;82.50;;;;;;4810853;29;20384;-79
2023/06/02 10:53:13;;;;;;;;;;;21.90;90.50;;;;;;4797204;29;20087;-77
2023/06/02 10:55:41;;;;;;;;;;;21.20;86.50;;;;;;4770542;29;21769;-77
2023/06/02 10:58:12;;;;;;;;;;;21.10;86.70;;;;;;4788695;29;19971;-77
2023/06/02 11:00:40;;;;;;;;;;;20.50;91.50;;;;;;4774863;29;20412;-76
2023/06/02 11:03:21;;;;;;;;;;;20.80;84.70;;;;;;4796364;29;19936;-77
2023/06/02 11:05:54;;;;;;;;;;;21.20;88.60;;;;;;4775384;29;19959;-76
2023/06/02 11:08:24;;;;;;;;;;;21.50;92.10;;;;;;4789471;29;20714;-76
2023/06/02 11:10:55;;;;;;;;;;;21.50;92.90;;;;;;4774823;29;20080;-76
2023/06/02 11:13:23;;;;;;;;;;;21.60;95.60;;;;;;4789636;29;19976;-77
2023/06/02 11:15:53;;;;;;;;;;;21.70;97.90;;;;;;4790250;29;19944;-77
2023/06/02 11:18:23;;;;;;;;;;;21.90;99.90;;;;;;4806326;29;20384;-77
2023/06/02 11:20:51;;;;;;;;;;;21.90;99.90;;;;;;4758339;29;19968;-76
2023/06/02 11:23:18;;;;;;;;;;;22.00;99.90;;;;;;4795245;29;19936;-76
2023/06/02 11:25:49;;;;;;;;;;;22.00;99.90;;;;;;4791920;29;19943;-76
2023/06/02 11:28:23;;;;;;;;;;;21.90;99.30;;;;;;4773708;29;19943;-76
2023/06/02 11:31:08;;;;;;;;;;;21.90;98.40;;;;;;4772074;29;19937;-77
2023/06/02 11:33:39;;;;;;;;;;;21.90;98.30;;;;;;4791429;29;19975;-77
2023/06/02 11:36:10;;;;;;;;;;;21.90;99.30;;;;;;4775371;29;19937;-77
2023/06/02 11:38:38;;;;;;;;;;;22.00;98.20;;;;;;4779712;29;20765;-77
2023/06/02 11:41:12;;;;;;;;;;;22.00;98.20;;;;;;4793009;29;19936;-77
2023/06/02 11:43:40;;;;;;;;;;;22.00;98.30;;;;;;4779659;29;20004;-78
2023/06/02 11:46:10;;;;;;;;;;;22.00;99.90;;;;;;4795034;29;19943;-78
2023/06/02 11:48:38;;;;;;;;;;;21.90;99.90;;;;;;4775740;29;20779;-78
2023/06/02 11:51:06;;;;;;;;;;;22.00;99.90;;;;;;4790799;29;19943;-78
2023/06/02 11:53:33;;;;;;;;;;;21.90;99.90;;;;;;4774596;29;22990;-78
2023/06/02 11:56:00;;;;;;;;;;;21.80;99.90;;;;;;4790447;29;20560;-78
2023/06/02 11:58:28;;;;;;;;;;;21.90;99.90;;;;;;4794917;29;19936;-77
2023/06/02 12:01:08;;;;;;;;;;;21.80;99.90;;;;;;4778000;29;19932;-77
2023/06/02 12:03:36;;;;;;;;;;;21.80;99.90;;;;;;4779769;29;20110;-77
2023/06/02 12:06:07;;;;;;;;;;;21.70;99.90;;;;;;4794461;29;20695;-77
2023/06/02 12:08:35;;;;;;;;;;;21.70;99.90;;;;;;4792274;29;19943;-77
2023/06/02 12:11:02;;;;;;;;;;;21.70;99.90;;;;;;4770086;29;19936;-77
2023/06/02 12:13:31;;;;;;;;;;;21.70;99.90;;;;;;4802146;29;20031;-77
2023/06/02 12:16:18;;;;;;;;;;;21.60;99.90;;;;;;4768584;29;19947;-77
2023/06/02 12:18:45;;;;;;;;;;;21.70;99.90;;;;;;4791758;29;19944;-77
2023/06/02 12:21:25;;;;;;;;;;;21.60;99.90;;;;;;4786770;29;20575;-77
2023/06/02 12:23:57;;;;;;;;;;;21.70;99.90;;;;;;4800296;29;20381;-77
2023/06/02 12:26:24;;;;;;;;;;;21.70;99.90;;;;;;4796256;29;19932;-77
2023/06/02 12:28:51;;;;;;;;;;;21.60;99.90;;;;;;4773591;29;19937;-77
2023/06/02 12:31:18;;;;;;;;;;;21.60;99.90;;;;;;4794607;29;20333;-77
2023/06/02 12:33:46;;;;;;;;;;;21.60;99.90;;;;;;4780502;29;19943;-77
2023/06/02 12:36:13;;;;;;;;;;;21.60;99.90;;;;;;4776262;29;20008;-77
2023/06/02 12:38:40;;;;;;;;;;;21.60;99.90;;;;;;4795189;29;20072;-77
2023/06/02 12:41:10;;;;;;;;;;;21.60;99.90;;;;;;4793704;29;22442;-77
2023/06/02 12:43:42;;;;;;;;;;;21.60;99.90;;;;;;4785668;29;20090;-77
2023/06/02 12:46:11;;;;;;;;;;;21.60;99.90;;;;;;4777023;29;19937;-77
2023/06/02 12:48:39;;;;;;;;;;;21.60;99.90;;;;;;4792190;29;19963;-77
2023/06/02 12:51:07;;;;;;;;;;;21.60;99.90;;;;;;4776935;29;22465;-77
2023/06/02 12:53:35;;;;;;;;;;;21.60;99.90;;;;;;4792208;29;20028;-77
2023/06/02 12:56:03;;;;;;;;;;;21.60;99.90;;;;;;4806140;29;19936;-78
2023/06/02 12:58:31;;;;;;;;;;;21.70;99.90;;;;;;4792933;29;20736;-78
2023/06/02 13:00:58;;;;;;;;;;;21.70;99.90;;;;;;4796961;29;19979;-78
2023/06/02 13:03:26;;;;;;;;;;;21.80;99.90;;;;;;4780109;29;20037;-78
2023/06/02 13:05:57;;;;;;;;;;;21.90;99.90;;;;;;4796411;29;20063;-78
2023/06/02 13:08:25;;;;;;;;;;;21.90;99.90;;;;;;4806191;29;19964;-78
2023/06/02 13:10:55;;;;;;;;;;;21.90;99.90;;;;;;4794624;29;19951;-78
2023/06/02 13:13:26;;;;;;;;;;;22.00;99.90;;;;;;4793173;29;19943;-78
2023/06/02 13:15:53;;;;;;;;;;;21.90;99.90;;;;;;4798387;29;19948;-78
2023/06/02 13:18:21;;;;;;;;;;;22.20;99.60;;;;;;4793285;29;20517;-77
2023/06/02 13:20:50;;;;;;;;;;;22.50;98.90;;;;;;4793620;29;20870;-78
2023/06/02 13:23:17;;;;;;;;;;;22.80;99.40;;;;;;4797316;29;19960;-77
2023/06/02 13:25:45;;;;;;;;;;;23.10;97.80;;;;;;4790315;29;19943;-77
2023/06/02 13:28:12;;;;;;;;;;;23.30;99.40;;;;;;4794113;29;19936;-77
2023/06/02 13:30:39;;;;;;;;;;;23.50;98.00;;;;;;4788377;29;19936;-77
2023/06/02 13:33:06;;;;;;;;;;;23.50;95.10;;;;;;4777413;29;20003;-77
2023/06/02 13:35:34;;;;;;;;;;;23.80;95.40;;;;;;4775597;29;19936;-77
2023/06/02 13:38:01;;;;;;;;;;;23.70;94.60;;;;;;4799801;29;19937;-77
2023/06/02 13:40:28;;;;;;;;;;;23.80;92.20;;;;;;4818964;29;19929;-78
2023/06/02 13:42:55;;;;;;;;;;;23.80;90.80;;;;;;4796581;29;20027;-78
2023/06/02 13:45:22;;;;;;;;;;;23.90;90.20;;;;;;4802514;29;19936;-77
2023/06/02 13:47:50;;;;;;;;;;;24.00;89.50;;;;;;4800428;29;19944;-78
2023/06/02 13:50:17;;;;;;;;;;;24.00;91.80;;;;;;4792992;29;19937;-78
2023/06/02 13:52:44;;;;;;;;;;;24.10;90.60;;;;;;4798584;29;19937;-78
2023/06/02 13:55:12;;;;;;;;;;;24.10;90.50;;;;;;4783650;29;20674;-78
2023/06/02 13:57:39;;;;;;;;;;;24.30;80.40;;;;;;4798580;29;19937;-78
2023/06/02 14:00:07;;;;;;;;;;;24.30;76.30;;;;;;4813862;29;19979;-79
2023/06/02 14:02:37;;;;;;;;;;;24.30;78.60;;;;;;4799420;29;19937;-78
2023/06/02 14:05:06;;;;;;;;;;;24.50;77.10;;;;;;4799061;29;20412;-78
2023/06/02 14:07:32;;;;;;;;;;;24.50;82.80;;;;;;4780157;29;20712;-78
2023/06/02 14:10:00;;;;;;;;;;;24.60;74.80;;;;;;4820041;29;19936;-77
2023/06/02 14:12:27;;;;;;;;;;;24.50;79.30;;;;;;4803232;29;19929;-77
2023/06/02 14:14:54;;;;;;;;;;;24.50;77.90;;;;;;4800313;29;19996;-77
2023/06/02 14:17:22;;;;;;;;;;;24.60;74.40;;;;;;4779124;29;20046;-77
2023/06/02 14:19:49;;;;;;;;;;;24.50;77.90;;;;;;4782649;29;20377;-77
2023/06/02 14:22:16;;;;;;;;;;;24.60;72.30;;;;;;4801999;29;19936;-77
2023/06/02 14:24:43;;;;;;;;;;;24.60;72.40;;;;;;4790862;29;19936;-77
2023/06/02 14:27:10;;;;;;;;;;;24.80;74.60;;;;;;4800783;29;20910;-77